sensor_id;sensor_type;location;lat;lon;timestamp;pressure;altitude;pressure_sealevel;temperature;humidity
30081;BME280;16902;50.816;12.828;2024-01-15T00:02:40;95982.31;;;-1.04;100.00
30081;BME280;16902;50.816;12.828;2024-01-15T00:07:42;95971.81;;;-1.01;100.00
30081;BME280;16902;50.816;12.828;2024-01-15T00:12:43;95963.19;;;-1.00;100.00
30081;BME280;16902;50.816;12.828;2024-01-15T00:17:46;95952.75;;;-1.07;100.00
30081;BME280;16902;50.816;12.828;2024-01-15T00:22:47;95955.47;;;-1.08;100.00
30081;BME280;16902;50.816;12.828;2024-01-15T00:27:49;95958.53;;;-1.05;100.00
30081;BME280;16902;50.816;12.828;2024-01-15T00:32:51;95950.88;;;-1.05;100.00
30081;BME280;16902;50.816;12.828;2024-01-15T00:37:53;95951.97;;;-1.07;100.00
30081;BME280;16902;50.816;12.828;2024-01-15T00:42:55;95944.63;;;-1.10;100.00
30081;BME280;16902;50.816;12.828;2024-01-15T00:47:57;95951.63;;;-1.12;100.00
30081;BME280;16902;50.816;12.828;2024-01-15T00:53:01;95942.66;;;-1.16;100.00
30081;BME280;16902;50.816;12.828;2024-01-15T00:58:03;95946.31;;;-1.19;100.00
30081;BME280;16902;50.816;12.828;2024-01-15T01:03:05;95958.84;;;-1.34;100.00
30081;BME280;16902;50.816;12.828;2024-01-15T01:08:07;95937.41;;;-1.41;100.00
30081;BME280;16902;50.816;12.828;2024-01-15T01:13:09;95930.09;;;-1.36;100.00
30081;BME280;16902;50.816;12.828;2024-01-15T01:18:11;95911.59;;;-1.38;100.00
30081;BME280;16902;50.816;12.828;2024-01-15T01:23:13;95889.72;;;-1.40;100.00
30081;BME280;16902;50.816;12.828;2024-01-15T01:28:15;95889.53;;;-1.47;100.00
30081;BME280;16902;50.816;12.828;2024-01-15T01:33:17;95885.84;;;-1.52;100.00
30081;BME280;16902;50.816;12.828;2024-01-15T01:38:19;95873.88;;;-1.52;100.00
30081;BME280;16902;50.816;12.828;2024-01-15T01:43:21;95872.28;;;-1.53;100.00
30081;BME280;16902;50.816;12.828;2024-01-15T01:48:24;95859.69;;;-1.54;100.00
30081;BME280;16902;50.816;12.828;2024-01-15T01:53:28;95872.44;;;-1.54;100.00
30081;BME280;16902;50.816;12.828;2024-01-15T01:58:32;95906.25;;;-1.52;100.00
30081;BME280;16902;50.816;12.828;2024-01-15T02:03:35;95920.59;;;-1.51;100.00
30081;BME280;16902;50.816;12.828;2024-01-15T02:08:38;95917.41;;;-1.53;100.00
30081;BME280;16902;50.816;12.828;2024-01-15T02:13:40;95932.38;;;-1.59;100.00
30081;BME280;16902;50.816;12.828;2024-01-15T02:18:43;95913.66;;;-1.67;100.00
30081;BME280;16902;50.816;12.828;2024-01-15T02:23:46;95914.38;;;-1.75;100.00
30081;BME280;16902;50.816;12.828;2024-01-15T02:28:48;95923.44;;;-1.81;100.00
30081;BME280;16902;50.816;12.828;2024-01-15T02:33:50;95924.66;;;-1.85;100.00
30081;BME280;16902;50.816;12.828;2024-01-15T02:38:52;95927.97;;;-1.92;100.00
30081;BME280;16902;50.816;12.828;2024-01-15T02:43:54;95934.03;;;-1.93;100.00
30081;BME280;16902;50.816;12.828;2024-01-15T02:48:56;95923.00;;;-1.94;100.00
30081;BME280;16902;50.816;12.828;2024-01-15T02:53:58;95908.00;;;-1.97;100.00
30081;BME280;16902;50.816;12.828;2024-01-15T02:59:00;95915.75;;;-2.07;100.00
30081;BME280;16902;50.816;12.828;2024-01-15T03:04:02;95927.38;;;-2.04;100.00
30081;BME280;16902;50.816;12.828;2024-01-15T03:09:04;95932.72;;;-2.15;100.00
30081;BME280;16902;50.816;12.828;2024-01-15T03:14:07;95915.53;;;-2.31;100.00
30081;BME280;16902;50.816;12.828;2024-01-15T03:19:09;95926.16;;;-2.36;100.00
30081;BME280;16902;50.816;12.828;2024-01-15T03:24:11;95919.91;;;-2.41;100.00
30081;BME280;16902;50.816;12.828;2024-01-15T03:29:13;95902.97;;;-2.42;100.00
30081;BME280;16902;50.816;12.828;2024-01-15T03:34:15;95916.41;;;-2.40;100.00
30081;BME280;16902;50.816;12.828;2024-01-15T03:39:17;95920.69;;;-2.41;100.00
30081;BME280;16902;50.816;12.828;2024-01-15T03:44:19;95918.00;;;-2.39;100.00
30081;BME280;16902;50.816;12.828;2024-01-15T03:49:20;95931.53;;;-2.39;100.00
30081;BME280;16902;50.816;12.828;2024-01-15T03:54:23;95919.59;;;-2.38;100.00
30081;BME280;16902;50.816;12.828;2024-01-15T03:59:25;95910.94;;;-2.45;100.00
30081;BME280;16902;50.816;12.828;2024-01-15T04:04:29;95918.84;;;-2.48;100.00
30081;BME280;16902;50.816;12.828;2024-01-15T04:09:31;95922.63;;;-2.52;100.00
30081;BME280;16902;50.816;12.828;2024-01-15T04:14:34;95912.59;;;-2.54;100.00
30081;BME280;16902;50.816;12.828;2024-01-15T04:19:36;95898.75;;;-2.69;100.00
30081;BME280;16902;50.816;12.828;2024-01-15T04:24:38;95922.31;;;-2.67;100.00
30081;BME280;16902;50.816;12.828;2024-01-15T04:29:40;95912.66;;;-2.64;100.00
30081;BME280;16902;50.816;12.828;2024-01-15T04:34:42;95916.81;;;-2.63;100.00
30081;BME280;16902;50.816;12.828;2024-01-15T04:39:44;95908.09;;;-2.60;100.00
30081;BME280;16902;50.816;12.828;2024-01-15T04:44:47;95909.53;;;-2.58;100.00
30081;BME280;16902;50.816;12.828;2024-01-15T04:49:49;95915.72;;;-2.60;100.00
30081;BME280;16902;50.816;12.828;2024-01-15T04:54:51;95918.91;;;-2.58;100.00
30081;BME280;16902;50.816;12.828;2024-01-15T04:59:53;95917.69;;;-2.54;100.00
30081;BME280;16902;50.816;12.828;2024-01-15T05:04:55;95949.72;;;-2.51;100.00
30081;BME280;16902;50.816;12.828;2024-01-15T05:09:57;95933.94;;;-2.55;100.00
30081;BME280;16902;50.816;12.828;2024-01-15T05:14:59;95935.25;;;-2.51;100.00
30081;BME280;16902;50.816;12.828;2024-01-15T05:20:01;95947.03;;;-2.50;100.00
30081;BME280;16902;50.816;12.828;2024-01-15T05:25:05;95931.44;;;-2.47;100.00
30081;BME280;16902;50.816;12.828;2024-01-15T05:30:08;95936.69;;;-2.48;100.00
30081;BME280;16902;50.816;12.828;2024-01-15T05:35:10;95934.16;;;-2.48;100.00
30081;BME280;16902;50.816;12.828;2024-01-15T05:40:12;95944.56;;;-2.42;100.00
30081;BME280;16902;50.816;12.828;2024-01-15T05:45:15;95950.03;;;-2.37;100.00
30081;BME280;16902;50.816;12.828;2024-01-15T05:50:17;95940.50;;;-2.35;100.00
30081;BME280;16902;50.816;12.828;2024-01-15T05:55:18;95926.69;;;-2.32;100.00
30081;BME280;16902;50.816;12.828;2024-01-15T06:00:20;95929.88;;;-2.30;100.00
30081;BME280;16902;50.816;12.828;2024-01-15T06:05:22;95918.78;;;-2.39;100.00
30081;BME280;16902;50.816;12.828;2024-01-15T06:10:24;95915.66;;;-2.50;100.00
30081;BME280;16902;50.816;12.828;2024-01-15T06:15:26;95912.59;;;-2.54;100.00
30081;BME280;16902;50.816;12.828;2024-01-15T06:20:28;95919.44;;;-2.54;100.00
30081;BME280;16902;50.816;12.828;2024-01-15T06:25:30;95902.13;;;-2.51;100.00
30081;BME280;16902;50.816;12.828;2024-01-15T06:30:32;95894.91;;;-2.38;100.00
30081;BME280;16902;50.816;12.828;2024-01-15T06:35:34;95901.19;;;-2.32;100.00
30081;BME280;16902;50.816;12.828;2024-01-15T06:40:36;95900.09;;;-2.29;100.00
30081;BME280;16902;50.816;12.828;2024-01-15T06:45:38;95902.34;;;-2.26;100.00
30081;BME280;16902;50.816;12.828;2024-01-15T06:50:40;95893.41;;;-2.30;100.00
30081;BME280;16902;50.816;12.828;2024-01-15T06:55:42;95899.44;;;-2.31;100.00
30081;BME280;16902;50.816;12.828;2024-01-15T07:00:44;95902.00;;;-2.31;100.00
30081;BME280;16902;50.816;12.828;2024-01-15T07:05:47;95907.66;;;-2.38;100.00
30081;BME280;16902;50.816;12.828;2024-01-15T07:10:49;95910.34;;;-2.39;100.00
30081;BME280;16902;50.816;12.828;2024-01-15T07:15:50;95909.69;;;-2.41;100.00
30081;BME280;16902;50.816;12.828;2024-01-15T07:20:53;95909.19;;;-2.45;100.00
30081;BME280;16902;50.816;12.828;2024-01-15T07:25:54;95910.13;;;-2.46;100.00
30081;BME280;16902;50.816;12.828;2024-01-15T07:30:57;95920.19;;;-2.44;100.00
30081;BME280;16902;50.816;12.828;2024-01-15T07:35:59;95937.06;;;-2.43;100.00
30081;BME280;16902;50.816;12.828;2024-01-15T07:41:04;95921.66;;;-2.42;100.00
30081;BME280;16902;50.816;12.828;2024-01-15T07:46:06;95926.34;;;-2.47;100.00
30081;BME280;16902;50.816;12.828;2024-01-15T07:51:09;95935.47;;;-2.44;100.00
30081;BME280;16902;50.816;12.828;2024-01-15T07:56:11;95928.34;;;-2.41;100.00
30081;BME280;16902;50.816;12.828;2024-01-15T08:01:13;95935.91;;;-2.31;100.00
30081;BME280;16902;50.816;12.828;2024-01-15T08:06:15;95921.59;;;-2.32;100.00
30081;BME280;16902;50.816;12.828;2024-01-15T08:11:18;95924.84;;;-2.22;100.00
30081;BME280;16902;50.816;12.828;2024-01-15T08:16:21;95926.44;;;-2.21;100.00
30081;BME280;16902;50.816;12.828;2024-01-15T08:21:23;95928.56;;;-2.16;100.00
30081;BME280;16902;50.816;12.828;2024-01-15T08:26:25;95934.22;;;-2.04;100.00
30081;BME280;16902;50.816;12.828;2024-01-15T08:31:27;95936.88;;;-1.96;100.00
30081;BME280;16902;50.816;12.828;2024-01-15T08:36:30;95931.88;;;-1.80;100.00
30081;BME280;16902;50.816;12.828;2024-01-15T08:41:33;95930.44;;;-1.83;100.00
30081;BME280;16902;50.816;12.828;2024-01-15T08:46:35;95925.91;;;-1.89;100.00
30081;BME280;16902;50.816;12.828;2024-01-15T08:51:36;95928.63;;;-1.90;100.00
30081;BME280;16902;50.816;12.828;2024-01-15T08:56:39;95926.94;;;-1.82;100.00
30081;BME280;16902;50.816;12.828;2024-01-15T09:01:41;95928.75;;;-1.74;100.00
30081;BME280;16902;50.816;12.828;2024-01-15T09:06:46;95928.75;;;-1.74;100.00
30081;BME280;16902;50.816;12.828;2024-01-15T09:11:48;95929.47;;;-1.82;100.00
30081;BME280;16902;50.816;12.828;2024-01-15T09:16:50;95940.94;;;-1.86;100.00
30081;BME280;16902;50.816;12.828;2024-01-15T09:21:52;95939.88;;;-1.57;100.00
30081;BME280;16902;50.816;12.828;2024-01-15T09:26:54;95932.31;;;-1.41;100.00
30081;BME280;16902;50.816;12.828;2024-01-15T09:31:56;95932.25;;;-1.23;100.00
30081;BME280;16902;50.816;12.828;2024-01-15T09:36:59;95929.59;;;-1.13;100.00
30081;BME280;16902;50.816;12.828;2024-01-15T09:42:02;95920.44;;;-1.24;100.00
30081;BME280;16902;50.816;12.828;2024-01-15T09:47:04;95919.66;;;-1.24;100.00
30081;BME280;16902;50.816;12.828;2024-01-15T09:52:07;95926.19;;;-1.22;100.00
30081;BME280;16902;50.816;12.828;2024-01-15T09:57:12;95939.00;;;-1.14;100.00
30081;BME280;16902;50.816;12.828;2024-01-15T10:02:14;95927.38;;;-1.08;100.00
30081;BME280;16902;50.816;12.828;2024-01-15T10:07:20;95924.47;;;-1.13;100.00
30081;BME280;16902;50.816;12.828;2024-01-15T10:12:24;95920.28;;;-0.96;100.00
30081;BME280;16902;50.816;12.828;2024-01-15T10:17:29;95916.78;;;-0.87;100.00
30081;BME280;16902;50.816;12.828;2024-01-15T10:22:32;95908.38;;;-1.14;100.00
30081;BME280;16902;50.816;12.828;2024-01-15T10:27:34;95904.84;;;-0.79;100.00
30081;BME280;16902;50.816;12.828;2024-01-15T10:32:36;95891.69;;;-0.25;100.00
30081;BME280;16902;50.816;12.828;2024-01-15T10:37:38;95881.16;;;-0.06;100.00
30081;BME280;16902;50.816;12.828;2024-01-15T10:42:40;95895.56;;;-0.05;100.00
30081;BME280;16902;50.816;12.828;2024-01-15T10:47:43;95885.00;;;-0.02;100.00
30081;BME280;16902;50.816;12.828;2024-01-15T10:52:46;95888.81;;;-0.22;100.00
30081;BME280;16902;50.816;12.828;2024-01-15T10:57:49;95889.13;;;-0.33;100.00
30081;BME280;16902;50.816;12.828;2024-01-15T11:02:52;95881.59;;;-0.35;100.00
30081;BME280;16902;50.816;12.828;2024-01-15T11:07:58;95895.50;;;-0.29;100.00
30081;BME280;16902;50.816;12.828;2024-01-15T11:13:02;95879.88;;;-0.10;100.00
30081;BME280;16902;50.816;12.828;2024-01-15T11:18:04;95874.28;;;-0.05;100.00
30081;BME280;16902;50.816;12.828;2024-01-15T11:23:07;95882.09;;;-0.15;100.00
30081;BME280;16902;50.816;12.828;2024-01-15T11:28:49;95875.72;;;-0.27;100.00
30081;BME280;16902;50.816;12.828;2024-01-15T11:33:51;95872.69;;;-0.14;100.00
30081;BME280;16902;50.816;12.828;2024-01-15T11:38:53;95877.97;;;0.01;100.00
30081;BME280;16902;50.816;12.828;2024-01-15T11:43:55;95883.38;;;-0.11;100.00
30081;BME280;16902;50.816;12.828;2024-01-15T11:49:03;95878.13;;;-0.17;100.00
30081;BME280;16902;50.816;12.828;2024-01-15T11:54:08;95884.19;;;-0.27;100.00
30081;BME280;16902;50.816;12.828;2024-01-15T11:59:12;95882.72;;;-0.29;100.00
30081;BME280;16902;50.816;12.828;2024-01-15T12:04:14;95877.75;;;-0.39;100.00
30081;BME280;16902;50.816;12.828;2024-01-15T12:09:19;95878.09;;;-0.42;100.00
30081;BME280;16902;50.816;12.828;2024-01-15T12:14:22;95885.13;;;-0.36;100.00
30081;BME280;16902;50.816;12.828;2024-01-15T12:19:24;95882.25;;;-0.33;100.00
30081;BME280;16902;50.816;12.828;2024-01-15T12:24:26;95881.78;;;-0.36;100.00
30081;BME280;16902;50.816;12.828;2024-01-15T12:29:28;95882.56;;;-0.52;100.00
30081;BME280;16902;50.816;12.828;2024-01-15T12:34:29;95875.50;;;-0.50;100.00
30081;BME280;16902;50.816;12.828;2024-01-15T12:39:34;95876.00;;;-0.55;100.00
30081;BME280;16902;50.816;12.828;2024-01-15T12:44:37;95868.97;;;-0.61;100.00
30081;BME280;16902;50.816;12.828;2024-01-15T12:49:41;95868.97;;;-0.44;100.00
30081;BME280;16902;50.816;12.828;2024-01-15T12:54:43;95865.00;;;-0.22;100.00
30081;BME280;16902;50.816;12.828;2024-01-15T12:59:46;95859.56;;;-0.19;100.00
30081;BME280;16902;50.816;12.828;2024-01-15T13:04:48;95868.03;;;-0.35;100.00
30081;BME280;16902;50.816;12.828;2024-01-15T13:09:51;95867.84;;;-0.50;100.00
30081;BME280;16902;50.816;12.828;2024-01-15T13:14:55;95865.28;;;-0.66;100.00
30081;BME280;16902;50.816;12.828;2024-01-15T13:19:58;95871.66;;;-0.70;100.00
30081;BME280;16902;50.816;12.828;2024-01-15T13:25:01;95862.84;;;-0.76;100.00
30081;BME280;16902;50.816;12.828;2024-01-15T13:30:04;95871.66;;;-0.70;100.00
30081;BME280;16902;50.816;12.828;2024-01-15T13:35:06;95867.16;;;-0.68;100.00
30081;BME280;16902;50.816;12.828;2024-01-15T13:40:11;95864.94;;;-0.63;100.00
30081;BME280;16902;50.816;12.828;2024-01-15T13:45:19;95869.09;;;-0.70;100.00
30081;BME280;16902;50.816;12.828;2024-01-15T13:50:22;95867.16;;;-0.76;100.00
30081;BME280;16902;50.816;12.828;2024-01-15T13:55:26;95872.59;;;-0.63;100.00
30081;BME280;16902;50.816;12.828;2024-01-15T14:00:28;95862.72;;;-0.58;100.00
30081;BME280;16902;50.816;12.828;2024-01-15T14:05:30;95865.09;;;-0.73;100.00
30081;BME280;16902;50.816;12.828;2024-01-15T14:10:32;95885.97;;;-0.78;100.00
30081;BME280;16902;50.816;12.828;2024-01-15T14:15:34;95879.63;;;-0.82;100.00
30081;BME280;16902;50.816;12.828;2024-01-15T14:20:36;95888.66;;;-0.87;100.00
30081;BME280;16902;50.816;12.828;2024-01-15T14:25:38;95889.34;;;-0.85;100.00
30081;BME280;16902;50.816;12.828;2024-01-15T14:30:41;95899.38;;;-0.92;100.00
30081;BME280;16902;50.816;12.828;2024-01-15T14:35:43;95907.63;;;-0.98;100.00
30081;BME280;16902;50.816;12.828;2024-01-15T14:40:44;95911.75;;;-1.05;100.00
30081;BME280;16902;50.816;12.828;2024-01-15T14:45:46;95917.16;;;-1.08;100.00
30081;BME280;16902;50.816;12.828;2024-01-15T14:50:48;95923.41;;;-1.11;100.00
30081;BME280;16902;50.816;12.828;2024-01-15T14:55:52;95925.94;;;-1.11;100.00
30081;BME280;16902;50.816;12.828;2024-01-15T15:00:55;95918.28;;;-1.11;100.00
30081;BME280;16902;50.816;12.828;2024-01-15T15:05:57;95921.94;;;-1.13;100.00
30081;BME280;16902;50.816;12.828;2024-01-15T15:11:00;95929.41;;;-1.20;100.00
30081;BME280;16902;50.816;12.828;2024-01-15T15:16:02;95940.19;;;-1.26;100.00
30081;BME280;16902;50.816;12.828;2024-01-15T15:21:04;95927.88;;;-1.39;100.00
30081;BME280;16902;50.816;12.828;2024-01-15T15:26:07;95930.72;;;-1.42;100.00
30081;BME280;16902;50.816;12.828;2024-01-15T15:31:08;95936.97;;;-1.36;100.00
30081;BME280;16902;50.816;12.828;2024-01-15T15:36:12;95943.06;;;-1.29;100.00
30081;BME280;16902;50.816;12.828;2024-01-15T15:41:14;95948.53;;;-1.24;100.00
30081;BME280;16902;50.816;12.828;2024-01-15T15:46:16;95951.44;;;-1.19;100.00
30081;BME280;16902;50.816;12.828;2024-01-15T15:51:18;95960.19;;;-1.21;100.00
30081;BME280;16902;50.816;12.828;2024-01-15T15:56:20;95963.69;;;-1.22;100.00
30081;BME280;16902;50.816;12.828;2024-01-15T16:01:22;95971.50;;;-1.24;100.00
30081;BME280;16902;50.816;12.828;2024-01-15T16:06:24;95978.50;;;-1.26;100.00
30081;BME280;16902;50.816;12.828;2024-01-15T16:11:27;95981.22;;;-1.27;100.00
30081;BME280;16902;50.816;12.828;2024-01-15T16:16:32;95977.84;;;-1.28;100.00
30081;BME280;16902;50.816;12.828;2024-01-15T16:21:54;95982.44;;;-1.32;100.00
30081;BME280;16902;50.816;12.828;2024-01-15T16:27:16;95979.25;;;-1.34;100.00
30081;BME280;16902;50.816;12.828;2024-01-15T16:32:18;95979.91;;;-1.32;100.00
30081;BME280;16902;50.816;12.828;2024-01-15T16:37:21;95994.66;;;-1.25;100.00
30081;BME280;16902;50.816;12.828;2024-01-15T16:42:22;95994.47;;;-1.24;100.00
30081;BME280;16902;50.816;12.828;2024-01-15T16:47:24;95998.47;;;-1.21;100.00
30081;BME280;16902;50.816;12.828;2024-01-15T16:52:26;95995.53;;;-1.35;100.00
30081;BME280;16902;50.816;12.828;2024-01-15T16:57:28;96006.63;;;-1.44;100.00
30081;BME280;16902;50.816;12.828;2024-01-15T17:02:30;96001.31;;;-1.50;100.00
30081;BME280;16902;50.816;12.828;2024-01-15T17:07:32;95990.44;;;-1.52;100.00
30081;BME280;16902;50.816;12.828;2024-01-15T17:12:34;95997.00;;;-1.50;100.00
30081;BME280;16902;50.816;12.828;2024-01-15T17:17:36;96001.56;;;-1.36;100.00
30081;BME280;16902;50.816;12.828;2024-01-15T17:22:38;96004.34;;;-1.29;100.00
30081;BME280;16902;50.816;12.828;2024-01-15T17:27:40;96002.44;;;-1.27;100.00
30081;BME280;16902;50.816;12.828;2024-01-15T17:32:42;96006.44;;;-1.24;100.00
30081;BME280;16902;50.816;12.828;2024-01-15T17:37:45;96023.88;;;-1.20;100.00
30081;BME280;16902;50.816;12.828;2024-01-15T17:42:47;96014.56;;;-1.29;100.00
30081;BME280;16902;50.816;12.828;2024-01-15T17:47:49;96010.19;;;-1.37;100.00
30081;BME280;16902;50.816;12.828;2024-01-15T17:52:51;96015.97;;;-1.35;100.00
30081;BME280;16902;50.816;12.828;2024-01-15T17:57:53;96019.00;;;-1.31;100.00
30081;BME280;16902;50.816;12.828;2024-01-15T18:02:55;96021.31;;;-1.20;100.00
30081;BME280;16902;50.816;12.828;2024-01-15T18:07:57;96026.47;;;-1.12;100.00
30081;BME280;16902;50.816;12.828;2024-01-15T18:12:59;96018.88;;;-1.04;100.00
30081;BME280;16902;50.816;12.828;2024-01-15T18:18:01;96025.13;;;-0.98;100.00
30081;BME280;16902;50.816;12.828;2024-01-15T18:23:04;96022.66;;;-1.08;100.00
30081;BME280;16902;50.816;12.828;2024-01-15T18:28:07;96033.66;;;-1.15;100.00
30081;BME280;16902;50.816;12.828;2024-01-15T18:33:09;96033.78;;;-1.17;100.00
30081;BME280;16902;50.816;12.828;2024-01-15T18:38:12;96037.59;;;-1.21;100.00
30081;BME280;16902;50.816;12.828;2024-01-15T18:43:14;96045.38;;;-1.22;100.00
30081;BME280;16902;50.816;12.828;2024-01-15T18:48:16;96053.84;;;-1.22;100.00
30081;BME280;16902;50.816;12.828;2024-01-15T18:53:18;96064.84;;;-1.21;100.00
30081;BME280;16902;50.816;12.828;2024-01-15T18:58:20;96058.22;;;-1.14;100.00
30081;BME280;16902;50.816;12.828;2024-01-15T19:03:22;96057.47;;;-1.07;100.00
30081;BME280;16902;50.816;12.828;2024-01-15T19:08:24;96060.06;;;-0.98;100.00
30081;BME280;16902;50.816;12.828;2024-01-15T19:13:26;96065.53;;;-0.93;100.00
30081;BME280;16902;50.816;12.828;2024-01-15T19:18:30;96067.19;;;-0.84;100.00
30081;BME280;16902;50.816;12.828;2024-01-15T19:23:32;96079.69;;;-0.81;100.00
30081;BME280;16902;50.816;12.828;2024-01-15T19:28:34;96088.63;;;-1.03;100.00
30081;BME280;16902;50.816;12.828;2024-01-15T19:33:36;96082.72;;;-1.21;100.00
30081;BME280;16902;50.816;12.828;2024-01-15T19:38:40;96086.09;;;-1.21;100.00
30081;BME280;16902;50.816;12.828;2024-01-15T19:43:42;96092.50;;;-1.17;100.00
30081;BME280;16902;50.816;12.828;2024-01-15T19:48:44;96105.56;;;-1.20;100.00
30081;BME280;16902;50.816;12.828;2024-01-15T19:53:47;96106.38;;;-1.19;100.00
30081;BME280;16902;50.816;12.828;2024-01-15T19:58:49;96115.47;;;-1.17;100.00
30081;BME280;16902;50.816;12.828;2024-01-15T20:03:51;96118.25;;;-1.28;100.00
30081;BME280;16902;50.816;12.828;2024-01-15T20:08:53;96126.16;;;-1.39;100.00
30081;BME280;16902;50.816;12.828;2024-01-15T20:13:56;96132.69;;;-1.37;100.00
30081;BME280;16902;50.816;12.828;2024-01-15T20:18:58;96156.84;;;-1.31;100.00
30081;BME280;16902;50.816;12.828;2024-01-15T20:24:00;96149.19;;;-1.31;100.00
30081;BME280;16902;50.816;12.828;2024-01-15T20:29:05;96153.63;;;-1.33;100.00
30081;BME280;16902;50.816;12.828;2024-01-15T20:34:07;96168.81;;;-1.32;100.00
30081;BME280;16902;50.816;12.828;2024-01-15T20:39:09;96153.13;;;-1.37;100.00
30081;BME280;16902;50.816;12.828;2024-01-15T20:44:11;96173.47;;;-1.45;100.00
30081;BME280;16902;50.816;12.828;2024-01-15T20:49:13;96186.25;;;-1.45;100.00
30081;BME280;16902;50.816;12.828;2024-01-15T20:54:16;96192.19;;;-1.36;100.00
30081;BME280;16902;50.816;12.828;2024-01-15T20:59:18;96200.75;;;-1.27;100.00
30081;BME280;16902;50.816;12.828;2024-01-15T21:04:20;96206.22;;;-1.22;100.00
30081;BME280;16902;50.816;12.828;2024-01-15T21:09:23;96218.94;;;-1.13;100.00
30081;BME280;16902;50.816;12.828;2024-01-15T21:14:25;96214.06;;;-1.06;100.00
30081;BME280;16902;50.816;12.828;2024-01-15T21:19:27;96223.09;;;-0.94;100.00
30081;BME280;16902;50.816;12.828;2024-01-15T21:24:30;96236.91;;;-0.87;100.00
30081;BME280;16902;50.816;12.828;2024-01-15T21:29:32;96238.56;;;-0.78;100.00
30081;BME280;16902;50.816;12.828;2024-01-15T21:34:34;96245.50;;;-0.70;100.00
30081;BME280;16902;50.816;12.828;2024-01-15T21:39:36;96249.16;;;-0.72;100.00
30081;BME280;16902;50.816;12.828;2024-01-15T21:44:39;96265.94;;;-0.70;100.00
30081;BME280;16902;50.816;12.828;2024-01-15T21:49:41;96272.38;;;-0.66;100.00
30081;BME280;16902;50.816;12.828;2024-01-15T21:54:43;96279.25;;;-0.66;100.00
30081;BME280;16902;50.816;12.828;2024-01-15T21:59:45;96292.66;;;-0.64;100.00
30081;BME280;16902;50.816;12.828;2024-01-15T22:04:47;96305.44;;;-0.64;100.00
30081;BME280;16902;50.816;12.828;2024-01-15T22:09:49;96315.66;;;-0.64;100.00
30081;BME280;16902;50.816;12.828;2024-01-15T22:14:51;96323.66;;;-0.67;100.00
30081;BME280;16902;50.816;12.828;2024-01-15T22:19:53;96325.38;;;-0.68;100.00
30081;BME280;16902;50.816;12.828;2024-01-15T22:24:55;96335.91;;;-0.71;100.00
30081;BME280;16902;50.816;12.828;2024-01-15T22:29:57;96336.69;;;-0.70;100.00
30081;BME280;16902;50.816;12.828;2024-01-15T22:34:59;96352.97;;;-0.71;100.00
30081;BME280;16902;50.816;12.828;2024-01-15T22:40:01;96354.88;;;-0.73;100.00
30081;BME280;16902;50.816;12.828;2024-01-15T22:45:03;96359.59;;;-0.79;100.00
30081;BME280;16902;50.816;12.828;2024-01-15T22:50:08;96358.16;;;-0.81;100.00
30081;BME280;16902;50.816;12.828;2024-01-15T22:55:10;96359.22;;;-0.84;100.00
30081;BME280;16902;50.816;12.828;2024-01-15T23:00:12;96369.75;;;-0.87;100.00
30081;BME280;16902;50.816;12.828;2024-01-15T23:05:20;96373.38;;;-0.89;100.00
30081;BME280;16902;50.816;12.828;2024-01-15T23:10:22;96361.25;;;-0.87;100.00
30081;BME280;16902;50.816;12.828;2024-01-15T23:15:24;96363.53;;;-0.84;100.00
30081;BME280;16902;50.816;12.828;2024-01-15T23:20:26;96370.25;;;-0.83;100.00
30081;BME280;16902;50.816;12.828;2024-01-15T23:25:28;96379.28;;;-0.89;100.00
30081;BME280;16902;50.816;12.828;2024-01-15T23:30:30;96378.44;;;-1.35;100.00
30081;BME280;16902;50.816;12.828;2024-01-15T23:35:32;96380.75;;;-1.51;100.00
30081;BME280;16902;50.816;12.828;2024-01-15T23:40:34;96384.91;;;-1.50;100.00
30081;BME280;16902;50.816;12.828;2024-01-15T23:45:36;96392.72;;;-1.61;100.00
30081;BME280;16902;50.816;12.828;2024-01-15T23:50:38;96390.47;;;-1.64;100.00
30081;BME280;16902;50.816;12.828;2024-01-15T23:55:40;96396.75;;;-1.59;100.00
